Croydon, Utah
Current Conditions -  °F | °C
As of 8:58 PM on Friday 24 Oct 2014 (Local Time) from KHIF Reporting Station
Clear Clear  
Wind Chill: 63°   Ceiling: Unl
Heat Index: 63°   Visibility: 10mi
Dew Point: 33°   Wind: 8mph
Humidity: 33%   Direction: 110°ESE
Pressure: 30.11"   Gusts: NA
Location:  41.07°N, 111.51°W
Report Text: KHIF 250258Z AUTO 11007KT 10SM CLR 17/01 A3011 RMK AO2 SLP159 T01720006 57002
Loading
Personal Weather Stations






























Interactive Weather Map New forecast layout! Learn more

10-Day Weather Forecast

Advertisements
Track Severe Weather on mobile